Time,TemperatureF,DewpointF,PressureIn,WindDirection,WindDirectionDegrees,WindSpeedMPH,WindSpeedGustMPH,Humidity,HourlyPrecipIn,Conditions,Clouds,dailyrainin,SoftwareType,DateUTC
2013-08-01 00:06:00,61.4,57.0,29.87,SW,215,0.0,-999.0,84,-99.99,,,0.00,weatherlink.com 1.10,2013-08-01 04:06:00,
2013-08-01 00:21:00,61.2,56.0,29.87,SW,215,0.0,-999.0,83,-99.99,,,0.00,weatherlink.com 1.10,2013-08-01 04:21:00,
2013-08-01 00:36:00,61.2,56.0,29.86,SW,215,0.0,-999.0,82,-99.99,,,0.00,weatherlink.com 1.10,2013-08-01 04:36:00,
2013-08-01 00:51:00,60.9,55.0,29.86,SW,215,0.0,-999.0,82,-99.99,,,0.00,weatherlink.com 1.10,2013-08-01 04:51:00,
2013-08-01 01:06:00,61.1,55.0,29.86,SW,215,0.0,-999.0,80,-99.99,,,0.00,weatherlink.com 1.10,2013-08-01 05:06:00,
2013-08-01 01:21:00,61.2,55.0,29.86,SW,215,0.0,-999.0,79,-99.99,,,0.00,weatherlink.com 1.10,2013-08-01 05:21:00,
2013-08-01 01:36:00,60.7,55.0,29.86,SW,215,0.0,-999.0,80,-99.99,,,0.00,weatherlink.com 1.10,2013-08-01 05:36:00,
2013-08-01 01:51:00,60.1,54.0,29.86,SW,215,0.0,-999.0,80,-99.99,,,0.00,weatherlink.com 1.10,2013-08-01 05:51:00,
2013-08-01 02:06:00,59.7,54.0,29.87,SW,215,1.0,-999.0,80,-99.99,,,0.00,weatherlink.com 1.10,2013-08-01 06:06:00,
2013-08-01 02:21:00,59.6,53.0,29.86,SW,215,0.0,-999.0,79,-99.99,,,0.00,weatherlink.com 1.10,2013-08-01 06:21:00,
2013-08-01 02:36:00,59.3,53.0,29.87,SW,215,0.0,-999.0,80,-99.99,,,0.00,weatherlink.com 1.10,2013-08-01 06:36:00,
2013-08-01 02:51:00,58.7,53.0,29.87,SW,215,0.0,-999.0,81,-99.99,,,0.00,weatherlink.com 1.10,2013-08-01 06:51:00,
2013-08-01 03:06:00,58.3,53.0,29.87,SW,215,0.0,-999.0,81,-99.99,,,0.00,weatherlink.com 1.10,2013-08-01 07:06:00,
2013-08-01 03:21:00,58.0,52.0,29.87,SW,215,0.0,-999.0,81,-99.99,,,0.00,weatherlink.com 1.10,2013-08-01 07:21:00,
2013-08-01 03:36:00,58.1,52.0,29.87,SW,215,0.0,-999.0,81,-99.99,,,0.00,weatherlink.com 1.10,2013-08-01 07:36:00,
2013-08-01 03:51:00,58.4,52.0,29.87,SW,215,0.0,-999.0,80,-99.99,,,0.00,weatherlink.com 1.10,2013-08-01 07:51:00,
2013-08-01 04:06:00,58.5,52.0,29.87,SW,215,0.0,-999.0,79,-99.99,,,0.00,weatherlink.com 1.10,2013-08-01 08:06:00,
2013-08-01 04:21:00,58.1,52.0,29.87,SW,215,1.0,-999.0,80,-99.99,,,0.00,weatherlink.com 1.10,2013-08-01 08:21:00,
2013-08-01 04:36:00,57.8,52.0,29.87,SW,215,1.0,-999.0,80,-99.99,,,0.00,weatherlink.com 1.10,2013-08-01 08:36:00,
2013-08-01 04:51:00,57.7,52.0,29.87,SW,215,1.0,-999.0,81,-99.99,,,0.00,weatherlink.com 1.10,2013-08-01 08:51:00,
2013-08-01 05:21:00,57.4,52.0,29.87,SW,215,0.0,-999.0,81,-99.99,,,0.00,weatherlink.com 1.10,2013-08-01 09:21:00,
2013-08-01 05:51:00,57.2,52.0,29.87,SW,215,0.0,-999.0,82,-99.99,,,0.00,weatherlink.com 1.10,2013-08-01 09:51:00,
2013-08-01 06:21:00,57.2,52.0,29.88,SW,215,1.0,-999.0,82,-99.99,,,0.00,weatherlink.com 1.10,2013-08-01 10:21:00,
2013-08-01 06:36:00,57.2,52.0,29.88,SW,215,0.0,-999.0,82,-99.99,,,0.00,weatherlink.com 1.10,2013-08-01 10:36:00,
2013-08-01 06:51:00,57.2,52.0,29.88,SW,215,1.0,-999.0,82,-99.99,,,0.00,weatherlink.com 1.10,2013-08-01 10:51:00,
2013-08-01 07:06:00,57.2,52.0,29.88,SW,215,1.0,-999.0,83,-99.99,,,0.00,weatherlink.com 1.10,2013-08-01 11:06:00,
2013-08-01 07:36:00,57.7,53.0,29.88,SW,215,0.0,-999.0,84,-99.99,,,0.00,weatherlink.com 1.10,2013-08-01 11:36:00,
2013-08-01 07:51:00,58.2,53.0,29.88,SW,215,0.0,-999.0,83,-99.99,,,0.00,weatherlink.com 1.10,2013-08-01 11:51:00,
2013-08-01 08:06:00,58.9,53.0,29.88,SW,215,1.0,-999.0,82,-99.99,,,0.00,weatherlink.com 1.10,2013-08-01 12:06:00,
2013-08-01 08:36:00,59.9,54.0,29.88,SW,215,0.0,-999.0,82,-99.99,,,0.00,weatherlink.com 1.10,2013-08-01 12:36:00,
2013-08-01 08:51:00,61.1,55.0,29.88,SW,215,1.0,-999.0,80,-99.99,,,0.00,weatherlink.com 1.10,2013-08-01 12:51:00,
2013-08-01 09:06:00,61.8,56.0,29.88,SW,215,0.0,-999.0,81,-99.99,,,0.00,weatherlink.com 1.10,2013-08-01 13:06:00,
2013-08-01 09:21:00,62.4,56.0,29.88,SW,215,0.0,-999.0,79,-99.99,,,0.00,weatherlink.com 1.10,2013-08-01 13:21:00,
2013-08-01 09:36:00,63.6,57.0,29.88,SW,215,0.0,-999.0,78,-99.99,,,0.00,weatherlink.com 1.10,2013-08-01 13:36:00,
2013-08-01 09:51:00,64.6,57.0,29.88,SW,215,1.0,-999.0,76,-99.99,,,0.00,weatherlink.com 1.10,2013-08-01 13:51:00,
2013-08-01 10:06:00,64.4,57.0,29.88,SSW,200,1.0,-999.0,76,-99.99,,,0.00,weatherlink.com 1.10,2013-08-01 14:06:00,
2013-08-01 10:36:00,66.7,57.0,29.88,NE,50,0.0,-999.0,72,-99.99,,,0.00,weatherlink.com 1.10,2013-08-01 14:36:00,
2013-08-01 10:51:00,67.7,59.0,29.87,South,191,2.0,-999.0,74,-99.99,,,0.00,weatherlink.com 1.10,2013-08-01 14:51:00,
2013-08-01 11:21:00,67.6,57.0,29.87,SSW,200,0.0,-999.0,69,-99.99,,,0.00,weatherlink.com 1.10,2013-08-01 15:21:00,
2013-08-01 11:36:00,68.4,57.0,29.87,SSW,193,1.0,-999.0,67,-99.99,,,0.00,weatherlink.com 1.10,2013-08-01 15:36:00,
2013-08-01 11:51:00,69.0,58.0,29.87,SSW,195,4.0,-999.0,68,-99.99,,,0.00,weatherlink.com 1.10,2013-08-01 15:51:00,
2013-08-01 12:06:00,69.3,57.0,29.88,NE,38,0.0,-999.0,65,-99.99,,,0.00,weatherlink.com 1.10,2013-08-01 16:06:00,
2013-08-01 12:36:00,68.8,57.0,29.88,SW,223,1.0,-999.0,66,-99.99,,,0.00,weatherlink.com 1.10,2013-08-01 16:36:00,
2013-08-01 12:51:00,69.1,56.0,29.87,SSW,201,3.0,-999.0,64,-99.99,,,0.00,weatherlink.com 1.10,2013-08-01 16:51:00,
2013-08-01 13:21:00,67.8,58.0,29.88,ENE,57,1.0,-999.0,70,-99.99,,,0.00,weatherlink.com 1.10,2013-08-01 17:21:00,
2013-08-01 13:36:00,67.2,57.0,29.88,ENE,78,0.0,-999.0,70,-99.99,,,0.00,weatherlink.com 1.10,2013-08-01 17:36:00,
2013-08-01 14:06:00,67.1,58.0,29.88,NE,43,0.0,-999.0,72,-99.99,,,0.00,weatherlink.com 1.10,2013-08-01 18:06:00,
2013-08-01 14:21:00,68.7,59.0,29.87,NE,52,0.0,-999.0,71,-99.99,,,0.00,weatherlink.com 1.10,2013-08-01 18:21:00,
2013-08-01 14:36:00,67.9,57.0,29.88,NNE,33,3.0,-999.0,69,-99.99,,,0.00,weatherlink.com 1.10,2013-08-01 18:36:00,
2013-08-01 14:51:00,66.6,58.0,29.89,NE,38,0.0,-999.0,73,-99.99,,,0.00,weatherlink.com 1.10,2013-08-01 18:51:00,
2013-08-01 15:21:00,68.6,58.0,29.88,NE,48,1.0,-999.0,70,-99.99,,,0.00,weatherlink.com 1.10,2013-08-01 19:21:00,
2013-08-01 15:36:00,67.5,58.0,29.88,NE,49,0.0,-999.0,72,-99.99,,,0.00,weatherlink.com 1.10,2013-08-01 19:36:00,
2013-08-01 16:06:00,67.6,58.0,29.88,NE,42,2.0,-999.0,72,-99.99,,,0.00,weatherlink.com 1.10,2013-08-01 20:06:00,
2013-08-01 16:21:00,67.7,58.0,29.88,NE,36,2.0,-999.0,71,-99.99,,,0.00,weatherlink.com 1.10,2013-08-01 20:21:00,
2013-08-01 16:36:00,68.3,59.0,29.88,NE,49,3.0,-999.0,71,-99.99,,,0.00,weatherlink.com 1.10,2013-08-01 20:36:00,
2013-08-01 16:51:00,68.0,58.0,29.87,NE,40,3.0,-999.0,70,-99.99,,,0.00,weatherlink.com 1.10,2013-08-01 20:51:00,
2013-08-01 17:06:00,68.4,59.0,29.87,NE,38,1.0,-999.0,71,-99.99,,,0.00,weatherlink.com 1.10,2013-08-01 21:06:00,
2013-08-01 17:21:00,69.1,59.0,29.87,NE,40,5.0,-999.0,69,-99.99,,,0.00,weatherlink.com 1.10,2013-08-01 21:21:00,
2013-08-01 17:36:00,68.7,59.0,29.86,NE,53,2.0,-999.0,70,-99.99,,,0.00,weatherlink.com 1.10,2013-08-01 21:36:00,
2013-08-01 18:06:00,67.0,58.0,29.87,NE,49,1.0,-999.0,72,-99.99,,,0.00,weatherlink.com 1.10,2013-08-01 22:06:00,
2013-08-01 18:21:00,67.2,57.0,29.86,ENE,71,0.0,-999.0,71,-99.99,,,0.00,weatherlink.com 1.10,2013-08-01 22:21:00,
2013-08-01 18:36:00,67.3,58.0,29.86,NE,46,2.0,-999.0,72,-99.99,,,0.00,weatherlink.com 1.10,2013-08-01 22:36:00,
2013-08-01 19:06:00,67.4,58.0,29.86,NE,42,2.0,-999.0,71,-99.99,,,0.00,weatherlink.com 1.10,2013-08-01 23:06:00,
2013-08-01 19:21:00,67.4,58.0,29.86,NE,42,0.0,-999.0,71,-99.99,,,0.00,weatherlink.com 1.10,2013-08-01 23:21:00,
2013-08-01 19:52:00,66.9,59.0,29.87,NE,42,0.0,-999.0,75,-99.99,,,0.00,weatherlink.com 1.10,2013-08-01 23:52:00,
2013-08-01 20:07:00,65.9,59.0,29.86,NE,42,0.0,-999.0,77,-99.99,,,0.00,weatherlink.com 1.10,2013-08-02 00:07:00,
2013-08-01 20:37:00,64.4,58.0,29.85,NE,42,0.0,-999.0,80,-99.99,,,0.00,weatherlink.com 1.10,2013-08-02 00:37:00,
2013-08-01 20:52:00,63.4,58.0,29.86,NE,42,0.0,-999.0,82,-99.99,,,0.00,weatherlink.com 1.10,2013-08-02 00:52:00,
2013-08-01 21:07:00,62.7,58.0,29.86,NE,42,0.0,-999.0,84,-99.99,,,0.00,weatherlink.com 1.10,2013-08-02 01:07:00,
2013-08-01 21:21:00,62.0,57.0,29.86,NE,42,0.0,-999.0,84,-99.99,,,0.00,weatherlink.com 1.10,2013-08-02 01:21:00,
2013-08-01 21:36:00,60.8,57.0,29.86,NE,42,0.0,-999.0,86,-99.99,,,0.00,weatherlink.com 1.10,2013-08-02 01:36:00,
2013-08-01 21:52:00,60.1,56.0,29.87,NE,42,0.0,-999.0,87,-99.99,,,0.00,weatherlink.com 1.10,2013-08-02 01:52:00,
2013-08-01 22:07:00,59.5,56.0,29.87,NE,42,0.0,-999.0,88,-99.99,,,0.00,weatherlink.com 1.10,2013-08-02 02:07:00,
2013-08-01 22:21:00,59.3,56.0,29.87,NE,42,0.0,-999.0,87,-99.99,,,0.00,weatherlink.com 1.10,2013-08-02 02:21:00,
2013-08-01 22:37:00,59.3,55.0,29.86,NE,42,0.0,-999.0,86,-99.99,,,0.00,weatherlink.com 1.10,2013-08-02 02:37:00,
2013-08-01 22:52:00,59.5,55.0,29.86,NE,42,0.0,-999.0,85,-99.99,,,0.00,weatherlink.com 1.10,2013-08-02 02:52:00,
2013-08-01 23:07:00,59.6,55.0,29.85,NE,42,0.0,-999.0,84,-99.99,,,0.00,weatherlink.com 1.10,2013-08-02 03:07:00,
2013-08-01 23:21:00,59.5,55.0,29.85,NE,42,0.0,-999.0,85,-99.99,,,0.00,weatherlink.com 1.10,2013-08-02 03:21:00,
2013-08-01 23:37:00,59.4,55.0,29.85,NE,42,0.0,-999.0,84,-99.99,,,0.00,weatherlink.com 1.10,2013-08-02 03:37:00,
2013-08-01 23:52:00,59.5,55.0,29.84,NE,42,0.0,-999.0,84,-99.99,,,0.00,weatherlink.com 1.10,2013-08-02 03:52:00,